createdAt,value
2023-05-12T00:07:39.504Z,13.56
2023-05-12T00:17:40.697Z,13.56
2023-05-12T00:27:41.579Z,13.63
2023-05-12T00:37:42.451Z,13.63
2023-05-12T00:47:43.822Z,13.63
2023-05-12T00:57:44.673Z,13.69
2023-05-12T01:07:45.535Z,13.63
2023-05-12T01:17:46.420Z,13.5
2023-05-12T01:27:47.769Z,13.56
2023-05-12T01:37:48.596Z,13.56
2023-05-12T01:47:49.458Z,13.5
2023-05-12T01:57:50.597Z,13.5
2023-05-12T02:07:51.459Z,13.5
2023-05-12T02:17:52.331Z,13.44
2023-05-12T02:27:53.199Z,13.38
2023-05-12T02:37:54.123Z,13.38
2023-05-12T02:47:55.496Z,13.19
2023-05-12T02:57:56.365Z,13.31
2023-05-12T03:07:57.362Z,13.06
2023-05-12T03:17:58.569Z,13.25
2023-05-12T03:27:59.488Z,13.19
2023-05-12T03:38:00.342Z,13.13
2023-05-12T03:48:01.741Z,13.19
2023-05-12T03:58:02.613Z,13.13
2023-05-12T04:08:03.491Z,13.13
2023-05-12T04:18:04.388Z,13.06
2023-05-12T04:28:05.291Z,13.13
2023-05-12T04:38:06.550Z,13.13
2023-05-12T04:48:07.413Z,13.25
2023-05-12T04:58:08.260Z,13.31
2023-05-12T05:08:09.425Z,13.31
2023-05-12T05:18:10.290Z,13.25
2023-05-12T05:28:11.193Z,13.31
2023-05-12T05:38:12.508Z,13.38
2023-05-12T05:48:13.368Z,13.19
2023-05-12T05:58:14.226Z,13.25
2023-05-12T06:08:15.405Z,13.38
2023-05-12T06:18:16.245Z,13.44
2023-05-12T06:28:17.153Z,13.31
2023-05-12T06:38:18.031Z,13.06
2023-05-12T06:48:19.443Z,13.31
2023-05-12T06:58:20.295Z,13.31
2023-05-12T07:08:22.124Z,13.31
2023-05-12T07:18:23.480Z,13.44
2023-05-12T07:28:24.453Z,13.44
2023-05-12T07:38:25.351Z,13.5
2023-05-12T07:48:26.267Z,13.44
2023-05-12T07:58:27.138Z,13.44
2023-05-12T08:08:28.610Z,13.56
2023-05-12T08:18:29.610Z,13.38
2023-05-12T08:28:30.977Z,13.56
2023-05-12T08:38:31.851Z,13.94
2023-05-12T08:48:32.852Z,14.06
2023-05-12T08:58:40.738Z,13.94
2023-05-12T09:08:40.268Z,14.31
2023-05-12T09:18:41.213Z,14.75
2023-05-12T09:28:42.167Z,15.19
2023-05-12T09:38:43.062Z,15.44
2023-05-12T09:48:43.992Z,15.56
2023-05-12T09:58:45.159Z,16.13
2023-05-12T10:08:46.046Z,16.56
2023-05-12T10:18:46.955Z,16.63
2023-05-12T10:28:48.231Z,17.06
2023-05-12T10:38:49.097Z,17.38
2023-05-12T10:48:50.063Z,17.56
2023-05-12T10:58:51.496Z,17.81
2023-05-12T11:08:53.098Z,17.88
2023-05-12T11:18:54.177Z,18.06
2023-05-12T11:28:55.452Z,18.06
2023-05-12T11:38:56.314Z,17.88
2023-05-12T11:48:57.247Z,17.88
2023-05-12T11:58:58.524Z,18.13
2023-05-12T12:08:59.436Z,18.13
2023-05-12T12:19:00.424Z,18
2023-05-12T12:29:03.878Z,18.38
2023-05-12T12:39:04.728Z,18.25
2023-05-12T12:49:05.636Z,18.19
2023-05-12T12:59:06.888Z,18.38
2023-05-12T13:09:07.787Z,18
2023-05-12T13:19:08.653Z,18
2023-05-12T13:29:10.069Z,17.88
2023-05-12T13:39:10.924Z,18.25
2023-05-12T13:49:11.783Z,18.31
2023-05-12T13:59:12.924Z,18.56
2023-05-12T14:09:13.870Z,18.44
2023-05-12T14:19:14.772Z,17.75
2023-05-12T14:29:16.062Z,18.31
2023-05-12T14:39:16.932Z,18.19
2023-05-12T14:49:17.900Z,18.31
2023-05-12T14:59:18.767Z,18.06
2023-05-12T15:09:19.641Z,18.44
2023-05-12T15:19:20.467Z,18.88
2023-05-12T15:29:21.356Z,19.25
2023-05-12T15:39:22.962Z,18.44
2023-05-12T15:49:24.355Z,17.06
2023-05-12T15:59:25.205Z,17.25
2023-05-12T16:09:26.142Z,17.81
2023-05-12T16:19:27.076Z,18.25
2023-05-12T16:29:28.024Z,18.5
2023-05-12T16:39:28.874Z,18
2023-05-12T16:49:30.128Z,17.81
2023-05-12T16:59:31.069Z,17.31
2023-05-12T17:09:31.956Z,17.44
2023-05-12T17:19:33.219Z,17.31
2023-05-12T17:29:34.134Z,17.13
2023-05-12T17:39:34.995Z,17.19
2023-05-12T17:49:35.882Z,16.75
2023-05-12T17:59:36.746Z,16.5
2023-05-12T18:09:37.681Z,16.13
2023-05-12T18:19:38.889Z,16.31
2023-05-12T18:29:39.836Z,16.13
2023-05-12T18:39:40.720Z,16.38
2023-05-12T18:49:41.613Z,16.38
2023-05-12T18:59:42.459Z,16.38
2023-05-12T19:09:43.398Z,16.31
2023-05-12T19:19:44.262Z,16
2023-05-12T19:29:45.698Z,15.88
2023-05-12T19:39:46.556Z,15.69
2023-05-12T19:49:47.427Z,15.88
2023-05-12T19:59:48.679Z,15.94
2023-05-12T20:09:49.564Z,15.81
2023-05-12T20:19:50.406Z,15.81
2023-05-12T20:29:51.783Z,15.69
2023-05-12T20:39:52.673Z,15.63
2023-05-12T20:49:53.610Z,15.5
2023-05-12T20:59:54.857Z,15.44
2023-05-12T21:09:55.788Z,15.38
2023-05-12T21:19:56.654Z,15.13
2023-05-12T21:29:57.559Z,14.81
2023-05-12T21:39:58.611Z,14.88
2023-05-12T21:49:59.933Z,14.75
2023-05-12T22:00:00.784Z,14.75
2023-05-12T22:10:01.671Z,14.63
2023-05-12T22:20:04.023Z,14.44
2023-05-12T22:30:04.902Z,14.5
2023-05-12T22:40:05.767Z,14.38
2023-05-12T22:50:07.139Z,14.25
2023-05-12T23:00:07.984Z,14.06
2023-05-12T23:10:08.933Z,13.75
2023-05-12T23:20:10.205Z,13.88
2023-05-12T23:30:14.375Z,13.88
2023-05-12T23:40:15.245Z,13.69
2023-05-12T23:50:16.572Z,13.5
